sensor_id;sensor_type;location;lat;lon;timestamp;pressure;altitude;pressure_sealevel;temperature;humidity
36092;BME280;22147;52.388;13.390;2023-02-16T00:01:19;101772.06;;;-2.72;100.00
36092;BME280;22147;52.388;13.390;2023-02-16T00:03:54;101773.94;;;-2.73;100.00
36092;BME280;22147;52.388;13.390;2023-02-16T00:06:26;101775.00;;;-2.74;100.00
36092;BME280;22147;52.388;13.390;2023-02-16T00:08:56;101774.16;;;-2.74;100.00
36092;BME280;22147;52.388;13.390;2023-02-16T00:11:32;101782.31;;;-2.74;100.00
36092;BME280;22147;52.388;13.390;2023-02-16T00:14:24;101778.78;;;-2.75;100.00
36092;BME280;22147;52.388;13.390;2023-02-16T00:16:57;101781.25;;;-2.73;100.00
36092;BME280;22147;52.388;13.390;2023-02-16T00:19:34;101777.72;;;-2.74;100.00
36092;BME280;22147;52.388;13.390;2023-02-16T00:22:06;101778.53;;;-2.73;100.00
36092;BME280;22147;52.388;13.390;2023-02-16T00:24:36;101766.84;;;-2.74;100.00
36092;BME280;22147;52.388;13.390;2023-02-16T00:27:15;101759.72;;;-2.75;100.00
36092;BME280;22147;52.388;13.390;2023-02-16T00:29:47;101759.94;;;-2.76;100.00
36092;BME280;22147;52.388;13.390;2023-02-16T00:32:16;101769.13;;;-2.77;100.00
36092;BME280;22147;52.388;13.390;2023-02-16T00:34:46;101776.47;;;-2.78;100.00
36092;BME280;22147;52.388;13.390;2023-02-16T00:37:19;101780.00;;;-2.77;100.00
36092;BME280;22147;52.388;13.390;2023-02-16T00:39:49;101775.63;;;-2.78;100.00
36092;BME280;22147;52.388;13.390;2023-02-16T00:42:26;101775.63;;;-2.78;100.00
36092;BME280;22147;52.388;13.390;2023-02-16T00:44:59;101771.25;;;-2.79;100.00
36092;BME280;22147;52.388;13.390;2023-02-16T00:47:43;101772.91;;;-2.78;100.00
36092;BME280;22147;52.388;13.390;2023-02-16T00:50:33;101771.47;;;-2.81;100.00
36092;BME280;22147;52.388;13.390;2023-02-16T00:53:03;101773.34;;;-2.81;100.00
36092;BME280;22147;52.388;13.390;2023-02-16T00:55:35;101765.41;;;-2.83;100.00
36092;BME280;22147;52.388;13.390;2023-02-16T00:58:29;101773.34;;;-2.81;100.00
36092;BME280;22147;52.388;13.390;2023-02-16T01:01:12;101777.09;;;-2.82;100.00
36092;BME280;22147;52.388;13.390;2023-02-16T01:03:43;101767.91;;;-2.81;100.00
36092;BME280;22147;52.388;13.390;2023-02-16T01:06:13;101773.34;;;-2.81;100.00
36092;BME280;22147;52.388;13.390;2023-02-16T01:09:14;101771.66;;;-2.82;100.00
36092;BME280;22147;52.388;13.390;2023-02-16T01:12:16;101764.56;;;-2.83;100.00
36092;BME280;22147;52.388;13.390;2023-02-16T01:14:53;101767.50;;;-2.85;100.00
36092;BME280;22147;52.388;13.390;2023-02-16T01:17:23;101763.97;;;-2.85;100.00
36092;BME280;22147;52.388;13.390;2023-02-16T01:19:52;101767.50;;;-2.85;100.00
36092;BME280;22147;52.388;13.390;2023-02-16T01:22:23;101754.94;;;-2.86;100.00
36092;BME280;22147;52.388;13.390;2023-02-16T01:24:53;101757.91;;;-2.88;100.00
36092;BME280;22147;52.388;13.390;2023-02-16T01:27:22;101764.16;;;-2.87;100.00
36092;BME280;22147;52.388;13.390;2023-02-16T01:29:52;101761.66;;;-2.89;100.00
36092;BME280;22147;52.388;13.390;2023-02-16T01:32:22;101759.13;;;-2.90;100.00
36092;BME280;22147;52.388;13.390;2023-02-16T01:34:52;101768.16;;;-2.90;100.00
36092;BME280;22147;52.388;13.390;2023-02-16T01:37:22;101761.84;;;-2.90;100.00
36092;BME280;22147;52.388;13.390;2023-02-16T01:39:52;101762.72;;;-2.90;100.00
36092;BME280;22147;52.388;13.390;2023-02-16T01:42:51;101760.81;;;-2.89;100.00
36092;BME280;22147;52.388;13.390;2023-02-16T01:45:39;101751.84;;;-2.90;100.00
36092;BME280;22147;52.388;13.390;2023-02-16T01:48:28;101755.19;;;-2.88;100.00
36092;BME280;22147;52.388;13.390;2023-02-16T01:51:33;101756.00;;;-2.87;100.00
36092;BME280;22147;52.388;13.390;2023-02-16T02:03:33;101746.78;;;-2.86;100.00
36092;BME280;22147;52.388;13.390;2023-02-16T02:06:33;101750.34;;;-2.85;100.00
36092;BME280;22147;52.388;13.390;2023-02-16T02:09:23;101744.47;;;-2.82;100.00
36092;BME280;22147;52.388;13.390;2023-02-16T02:15:32;101737.38;;;-2.83;100.00
36092;BME280;22147;52.388;13.390;2023-02-16T02:18:03;101731.31;;;-2.85;100.00
36092;BME280;22147;52.388;13.390;2023-02-16T02:21:53;101735.06;;;-2.87;100.00
36092;BME280;22147;52.388;13.390;2023-02-16T02:32:06;101726.94;;;-2.93;100.00
36092;BME280;22147;52.388;13.390;2023-02-16T02:34:58;101733.41;;;-2.94;100.00
36092;BME280;22147;52.388;13.390;2023-02-16T02:43:30;101719.22;;;-2.96;100.00
36092;BME280;22147;52.388;13.390;2023-02-16T02:46:29;101723.59;;;-2.95;100.00
36092;BME280;22147;52.388;13.390;2023-02-16T02:49:02;101716.94;;;-2.99;100.00
36092;BME280;22147;52.388;13.390;2023-02-16T02:51:32;101721.75;;;-3.01;100.00
36092;BME280;22147;52.388;13.390;2023-02-16T02:54:30;101724.03;;;-3.05;100.00
36092;BME280;22147;52.388;13.390;2023-02-16T02:57:39;101727.00;;;-3.07;100.00
36092;BME280;22147;52.388;13.390;2023-02-16T03:00:43;101718.22;;;-3.09;100.00
36092;BME280;22147;52.388;13.390;2023-02-16T03:03:34;101708.38;;;-3.10;100.00
36092;BME280;22147;52.388;13.390;2023-02-16T03:06:14;101714.88;;;-3.11;100.00
36092;BME280;22147;52.388;13.390;2023-02-16T03:08:53;101717.59;;;-3.11;100.00
36092;BME280;22147;52.388;13.390;2023-02-16T03:11:29;101714.03;;;-3.11;100.00
36092;BME280;22147;52.388;13.390;2023-02-16T03:15:17;101703.38;;;-3.13;100.00
36092;BME280;22147;52.388;13.390;2023-02-16T03:17:40;101707.38;;;-3.15;100.00
36092;BME280;22147;52.388;13.390;2023-02-16T03:20:30;101710.09;;;-3.15;100.00
36092;BME280;22147;52.388;13.390;2023-02-16T03:23:19;101702.75;;;-3.15;100.00
36092;BME280;22147;52.388;13.390;2023-02-16T03:26:09;101708.59;;;-3.11;100.00
36092;BME280;22147;52.388;13.390;2023-02-16T03:29:01;101699.41;;;-3.10;100.00
36092;BME280;22147;52.388;13.390;2023-02-16T03:31:55;101707.75;;;-3.12;100.00
36092;BME280;22147;52.388;13.390;2023-02-16T03:34:29;101710.28;;;-3.10;100.00
36092;BME280;22147;52.388;13.390;2023-02-16T03:37:00;101697.50;;;-3.10;100.00
36092;BME280;22147;52.388;13.390;2023-02-16T03:39:31;101705.25;;;-3.07;100.00
36092;BME280;22147;52.388;13.390;2023-02-16T03:42:23;101715.47;;;-3.02;100.00
36092;BME280;22147;52.388;13.390;2023-02-16T03:44:53;101715.47;;;-3.02;100.00
36092;BME280;22147;52.388;13.390;2023-02-16T03:47:24;101714.41;;;-3.01;100.00
36092;BME280;22147;52.388;13.390;2023-02-16T03:49:54;101705.88;;;-3.04;100.00
36092;BME280;22147;52.388;13.390;2023-02-16T03:52:24;101711.31;;;-3.04;100.00
36092;BME280;22147;52.388;13.390;2023-02-16T03:54:54;101706.91;;;-3.05;100.00
36092;BME280;22147;52.388;13.390;2023-02-16T03:57:25;101711.31;;;-3.04;100.00
36092;BME280;22147;52.388;13.390;2023-02-16T03:59:55;101706.91;;;-3.05;100.00
36092;BME280;22147;52.388;13.390;2023-02-16T04:02:28;101710.88;;;-3.01;100.00
36092;BME280;22147;52.388;13.390;2023-02-16T04:04:58;101714.22;;;-2.99;100.00
36092;BME280;22147;52.388;13.390;2023-02-16T04:07:28;101705.84;;;-2.98;100.00
36092;BME280;22147;52.388;13.390;2023-02-16T04:10:00;101707.75;;;-2.98;100.00
36092;BME280;22147;52.388;13.390;2023-02-16T04:12:30;101702.94;;;-2.96;100.00
36092;BME280;22147;52.388;13.390;2023-02-16T04:15:17;101708.53;;;-2.91;100.00
36092;BME280;22147;52.388;13.390;2023-02-16T04:17:48;101710.59;;;-2.87;100.00
36092;BME280;22147;52.388;13.390;2023-02-16T04:20:20;101701.59;;;-2.80;100.00
36092;BME280;22147;52.388;13.390;2023-02-16T04:22:53;101712.25;;;-2.79;100.00
36092;BME280;22147;52.388;13.390;2023-02-16T04:25:25;101699.69;;;-2.80;100.00
36092;BME280;22147;52.388;13.390;2023-02-16T04:27:56;101703.28;;;-2.79;100.00
36092;BME280;22147;52.388;13.390;2023-02-16T04:30:29;101704.50;;;-2.75;100.00
36092;BME280;22147;52.388;13.390;2023-02-16T04:33:01;101701.97;;;-2.70;100.00
36092;BME280;22147;52.388;13.390;2023-02-16T04:35:31;101696.31;;;-2.69;100.00
36092;BME280;22147;52.388;13.390;2023-02-16T04:38:01;101702.59;;;-2.68;100.00
36092;BME280;22147;52.388;13.390;2023-02-16T04:40:31;101701.75;;;-2.69;100.00
36092;BME280;22147;52.388;13.390;2023-02-16T04:42:59;101702.81;;;-2.70;100.00
36092;BME280;22147;52.388;13.390;2023-02-16T04:45:28;101700.53;;;-2.73;100.00
36092;BME280;22147;52.388;13.390;2023-02-16T04:47:56;101707.22;;;-2.75;100.00
36092;BME280;22147;52.388;13.390;2023-02-16T04:50:24;101703.47;;;-2.74;100.00
36092;BME280;22147;52.388;13.390;2023-02-16T04:52:53;101698.03;;;-2.74;100.00
36092;BME280;22147;52.388;13.390;2023-02-16T04:55:21;101698.84;;;-2.74;100.00
36092;BME280;22147;52.388;13.390;2023-02-16T04:57:50;101689.19;;;-2.70;100.00
36092;BME280;22147;52.388;13.390;2023-02-16T05:00:19;101689.41;;;-2.64;100.00
36092;BME280;22147;52.388;13.390;2023-02-16T05:02:47;101696.72;;;-2.65;100.00
36092;BME280;22147;52.388;13.390;2023-02-16T05:05:15;101688.53;;;-2.65;100.00
36092;BME280;22147;52.388;13.390;2023-02-16T05:07:43;101687.72;;;-2.66;100.00
36092;BME280;22147;52.388;13.390;2023-02-16T05:10:12;101687.09;;;-2.68;100.00
36092;BME280;22147;52.388;13.390;2023-02-16T05:12:40;101697.16;;;-2.68;100.00
36092;BME280;22147;52.388;13.390;2023-02-16T05:15:29;101700.09;;;-2.70;100.00
36092;BME280;22147;52.388;13.390;2023-02-16T05:17:59;101705.53;;;-2.70;100.00
36092;BME280;22147;52.388;13.390;2023-02-16T05:20:30;101697.81;;;-2.73;100.00
36092;BME280;22147;52.388;13.390;2023-02-16T05:23:18;101710.16;;;-2.77;100.00
36092;BME280;22147;52.388;13.390;2023-02-16T05:25:49;101712.47;;;-2.80;100.00
36092;BME280;22147;52.388;13.390;2023-02-16T05:28:19;101718.13;;;-2.82;100.00
36092;BME280;22147;52.388;13.390;2023-02-16T05:30:49;101712.06;;;-2.84;100.00
36092;BME280;22147;52.388;13.390;2023-02-16T05:33:19;101717.72;;;-2.85;100.00
36092;BME280;22147;52.388;13.390;2023-02-16T05:35:49;101716.25;;;-2.88;100.00
36092;BME280;22147;52.388;13.390;2023-02-16T05:38:19;101707.91;;;-2.93;100.00
36092;BME280;22147;52.388;13.390;2023-02-16T05:40:49;101707.75;;;-2.98;100.00
36092;BME280;22147;52.388;13.390;2023-02-16T05:43:20;101709.22;;;-3.02;100.00
36092;BME280;22147;52.388;13.390;2023-02-16T05:45:50;101700.84;;;-3.08;100.00
36092;BME280;22147;52.388;13.390;2023-02-16T05:48:20;101717.59;;;-3.11;100.00
36092;BME280;22147;52.388;13.390;2023-02-16T05:50:53;101699.84;;;-3.13;100.00
36092;BME280;22147;52.388;13.390;2023-02-16T05:53:23;101704.00;;;-3.11;100.00
36092;BME280;22147;52.388;13.390;2023-02-16T05:55:53;101709.81;;;-3.07;100.00
36092;BME280;22147;52.388;13.390;2023-02-16T05:58:24;101704.78;;;-2.97;100.00
36092;BME280;22147;52.388;13.390;2023-02-16T06:00:54;101717.31;;;-2.89;100.00
36092;BME280;22147;52.388;13.390;2023-02-16T06:03:25;101720.84;;;-2.82;100.00
36092;BME280;22147;52.388;13.390;2023-02-16T06:05:59;101725.63;;;-2.77;100.00
36092;BME280;22147;52.388;13.390;2023-02-16T06:08:32;101721.84;;;-2.70;100.00
36092;BME280;22147;52.388;13.390;2023-02-16T06:11:03;101727.28;;;-2.70;100.00
36092;BME280;22147;52.388;13.390;2023-02-16T06:13:57;101720.59;;;-2.74;100.00
36092;BME280;22147;52.388;13.390;2023-02-16T06:16:31;101724.38;;;-2.75;100.00
36092;BME280;22147;52.388;13.390;2023-02-16T06:19:00;101725.63;;;-2.77;100.00
36092;BME280;22147;52.388;13.390;2023-02-16T06:21:32;101719.59;;;-2.79;100.00
36092;BME280;22147;52.388;13.390;2023-02-16T06:24:05;101726.91;;;-2.80;100.00
36092;BME280;22147;52.388;13.390;2023-02-16T06:26:37;101722.06;;;-2.78;100.00
36092;BME280;22147;52.388;13.390;2023-02-16T06:29:08;101718.72;;;-2.73;100.00
36092;BME280;22147;52.388;13.390;2023-02-16T06:31:38;101723.53;;;-2.69;100.00
36092;BME280;22147;52.388;13.390;2023-02-16T06:34:09;101728.53;;;-2.66;100.00
36092;BME280;22147;52.388;13.390;2023-02-16T06:36:39;101730.38;;;-2.59;100.00
36092;BME280;22147;52.388;13.390;2023-02-16T06:39:11;101730.50;;;-2.41;100.00
36092;BME280;22147;52.388;13.390;2023-02-16T06:41:39;101732.56;;;-2.36;100.00
36092;BME280;22147;52.388;13.390;2023-02-16T06:44:14;101727.78;;;-2.41;100.00
36092;BME280;22147;52.388;13.390;2023-02-16T06:46:46;101726.31;;;-2.37;100.00
36092;BME280;22147;52.388;13.390;2023-02-16T06:49:18;101724.56;;;-2.31;100.00
36092;BME280;22147;52.388;13.390;2023-02-16T06:51:49;101728.53;;;-2.27;100.00
36092;BME280;22147;52.388;13.390;2023-02-16T06:54:18;101732.28;;;-2.21;100.00
36092;BME280;22147;52.388;13.390;2023-02-16T06:56:48;101731.16;;;-2.07;100.00
36092;BME280;22147;52.388;13.390;2023-02-16T06:59:18;101728.59;;;-2.02;100.00
36092;BME280;22147;52.388;13.390;2023-02-16T07:01:47;101733.63;;;-1.99;100.00
36092;BME280;22147;52.388;13.390;2023-02-16T07:04:17;101728.78;;;-1.97;100.00
36092;BME280;22147;52.388;13.390;2023-02-16T07:06:47;101742.78;;;-1.93;100.00
36092;BME280;22147;52.388;13.390;2023-02-16T07:09:17;101734.78;;;-1.88;100.00
36092;BME280;22147;52.388;13.390;2023-02-16T07:11:47;101735.09;;;-1.71;100.00
36092;BME280;22147;52.388;13.390;2023-02-16T07:14:17;101737.34;;;-1.68;100.00
36092;BME280;22147;52.388;13.390;2023-02-16T07:16:47;101733.34;;;-1.66;100.00
36092;BME280;22147;52.388;13.390;2023-02-16T07:19:16;101738.19;;;-1.68;100.00
36092;BME280;22147;52.388;13.390;2023-02-16T07:21:46;101743.56;;;-1.61;100.00
36092;BME280;22147;52.388;13.390;2023-02-16T07:24:16;101739.75;;;-1.53;100.00
36092;BME280;22147;52.388;13.390;2023-02-16T07:26:46;101738.03;;;-1.48;100.00
36092;BME280;22147;52.388;13.390;2023-02-16T07:29:16;101731.84;;;-1.36;100.00
36092;BME280;22147;52.388;13.390;2023-02-16T07:31:46;101735.72;;;-1.26;100.00
36092;BME280;22147;52.388;13.390;2023-02-16T07:34:16;101737.31;;;-1.18;100.00
36092;BME280;22147;52.388;13.390;2023-02-16T07:36:46;101734.13;;;-1.15;100.00
36092;BME280;22147;52.388;13.390;2023-02-16T07:39:16;101729.47;;;-1.08;100.00
36092;BME280;22147;52.388;13.390;2023-02-16T07:41:46;101738.94;;;-0.92;100.00
36092;BME280;22147;52.388;13.390;2023-02-16T07:44:16;101737.88;;;-0.91;100.00
36092;BME280;22147;52.388;13.390;2023-02-16T07:46:45;101737.19;;;-0.86;100.00
36092;BME280;22147;52.388;13.390;2023-02-16T07:49:15;101729.97;;;-0.80;100.00
36092;BME280;22147;52.388;13.390;2023-02-16T07:51:45;101732.09;;;-0.64;100.00
36092;BME280;22147;52.388;13.390;2023-02-16T07:54:15;101729.53;;;-0.59;100.00
36092;BME280;22147;52.388;13.390;2023-02-16T07:56:44;101734.59;;;-0.44;100.00
36092;BME280;22147;52.388;13.390;2023-02-16T07:59:14;101730.47;;;-0.35;100.00
36092;BME280;22147;52.388;13.390;2023-02-16T08:01:45;101728.56;;;-0.34;100.00
36092;BME280;22147;52.388;13.390;2023-02-16T08:04:15;101729.78;;;-0.30;100.00
36092;BME280;22147;52.388;13.390;2023-02-16T08:06:45;101728.41;;;-0.21;100.00
36092;BME280;22147;52.388;13.390;2023-02-16T08:09:17;101730.47;;;-0.05;100.00
36092;BME280;22147;52.388;13.390;2023-02-16T08:11:46;101739.41;;;0.03;100.00
36092;BME280;22147;52.388;13.390;2023-02-16T08:14:16;101737.03;;;0.06;100.00
36092;BME280;22147;52.388;13.390;2023-02-16T08:16:46;101734.53;;;0.05;100.00
36092;BME280;22147;52.388;13.390;2023-02-16T08:19:19;101733.63;;;0.11;100.00
36092;BME280;22147;52.388;13.390;2023-02-16T08:21:49;101735.09;;;0.37;100.00
36092;BME280;22147;52.388;13.390;2023-02-16T08:24:17;101744.72;;;0.39;100.00
36092;BME280;22147;52.388;13.390;2023-02-16T08:26:47;101747.09;;;0.48;100.00
36092;BME280;22147;52.388;13.390;2023-02-16T08:29:19;101747.09;;;0.48;100.00
36092;BME280;22147;52.388;13.390;2023-02-16T08:31:50;101752.44;;;0.54;100.00
36092;BME280;22147;52.388;13.390;2023-02-16T08:34:20;101750.19;;;0.51;100.00
36092;BME280;22147;52.388;13.390;2023-02-16T08:36:56;101749.59;;;0.61;100.00
36092;BME280;22147;52.388;13.390;2023-02-16T08:39:28;101740.47;;;0.79;100.00
36092;BME280;22147;52.388;13.390;2023-02-16T08:42:00;101743.78;;;1.05;100.00
36092;BME280;22147;52.388;13.390;2023-02-16T08:44:29;101749.22;;;1.28;100.00
36092;BME280;22147;52.388;13.390;2023-02-16T08:46:59;101748.78;;;1.60;100.00
36092;BME280;22147;52.388;13.390;2023-02-16T08:49:28;101739.91;;;1.98;100.00
36092;BME280;22147;52.388;13.390;2023-02-16T08:51:58;101734.97;;;2.12;100.00
36092;BME280;22147;52.388;13.390;2023-02-16T08:54:30;101735.06;;;2.17;100.00
36092;BME280;22147;52.388;13.390;2023-02-16T08:57:01;101737.06;;;2.39;100.00
36092;BME280;22147;52.388;13.390;2023-02-16T08:59:31;101736.22;;;2.72;100.00
36092;BME280;22147;52.388;13.390;2023-02-16T09:02:02;101733.47;;;2.89;100.00
36092;BME280;22147;52.388;13.390;2023-02-16T09:04:32;101737.09;;;3.12;100.00
36092;BME280;22147;52.388;13.390;2023-02-16T09:07:03;101729.00;;;3.22;100.00
36092;BME280;22147;52.388;13.390;2023-02-16T09:09:33;101722.50;;;3.55;100.00
36092;BME280;22147;52.388;13.390;2023-02-16T09:12:03;101732.88;;;3.97;100.00
36092;BME280;22147;52.388;13.390;2023-02-16T09:14:33;101730.66;;;4.21;100.00
36092;BME280;22147;52.388;13.390;2023-02-16T09:17:01;101727.91;;;4.54;100.00
36092;BME280;22147;52.388;13.390;2023-02-16T09:19:30;101726.69;;;4.77;100.00
36092;BME280;22147;52.388;13.390;2023-02-16T09:21:58;101724.09;;;5.02;100.00
36092;BME280;22147;52.388;13.390;2023-02-16T09:24:27;101729.19;;;5.31;100.00
36092;BME280;22147;52.388;13.390;2023-02-16T09:26:55;101738.00;;;5.33;100.00
36092;BME280;22147;52.388;13.390;2023-02-16T09:29:23;101735.81;;;5.35;100.00
36092;BME280;22147;52.388;13.390;2023-02-16T09:31:53;101724.84;;;5.45;100.00
36092;BME280;22147;52.388;13.390;2023-02-16T09:34:22;101721.91;;;5.78;100.00
36092;BME280;22147;52.388;13.390;2023-02-16T09:36:52;101721.72;;;5.95;100.00
36092;BME280;22147;52.388;13.390;2023-02-16T09:39:20;101728.09;;;6.16;100.00
36092;BME280;22147;52.388;13.390;2023-02-16T09:45:11;101723.69;;;6.30;100.00
36092;BME280;22147;52.388;13.390;2023-02-16T09:47:46;101732.25;;;6.34;100.00
36092;BME280;22147;52.388;13.390;2023-02-16T09:50:29;101727.84;;;6.32;100.00
36092;BME280;22147;52.388;13.390;2023-02-16T09:53:41;101728.69;;;6.48;100.00
36092;BME280;22147;52.388;13.390;2023-02-16T09:56:34;101723.44;;;6.57;100.00
36092;BME280;22147;52.388;13.390;2023-02-16T10:08:54;101713.41;;;7.07;100.00
36092;BME280;22147;52.388;13.390;2023-02-16T10:11:52;101717.75;;;7.24;100.00
36092;BME280;22147;52.388;13.390;2023-02-16T10:14:51;101719.41;;;7.30;100.00
36092;BME280;22147;52.388;13.390;2023-02-16T10:17:40;101721.41;;;7.79;100.00
36092;BME280;22147;52.388;13.390;2023-02-16T10:20:30;101718.75;;;8.03;100.00
36092;BME280;22147;52.388;13.390;2023-02-16T10:23:37;101723.44;;;8.08;100.00
36092;BME280;22147;52.388;13.390;2023-02-16T10:29:13;101727.63;;;8.45;100.00
36092;BME280;22147;52.388;13.390;2023-02-16T10:35:15;101723.09;;;8.20;100.00
36092;BME280;22147;52.388;13.390;2023-02-16T10:41:39;101711.56;;;8.47;97.30
36092;BME280;22147;52.388;13.390;2023-02-16T10:44:23;101718.38;;;8.60;97.11
36092;BME280;22147;52.388;13.390;2023-02-16T10:47:04;101714.91;;;8.73;99.78
36092;BME280;22147;52.388;13.390;2023-02-16T10:49:36;101710.91;;;8.84;97.21
36092;BME280;22147;52.388;13.390;2023-02-16T10:52:06;101703.38;;;9.14;97.36
36092;BME280;22147;52.388;13.390;2023-02-16T10:54:39;101699.66;;;9.48;98.74
36092;BME280;22147;52.388;13.390;2023-02-16T10:57:25;101698.59;;;9.44;93.95
36092;BME280;22147;52.388;13.390;2023-02-16T11:00:05;101706.16;;;9.38;89.88
36092;BME280;22147;52.388;13.390;2023-02-16T11:02:47;101696.78;;;9.34;93.39
36092;BME280;22147;52.388;13.390;2023-02-16T11:05:39;101693.47;;;9.08;92.43
36092;BME280;22147;52.388;13.390;2023-02-16T11:08:10;101680.53;;;9.27;96.92
36092;BME280;22147;52.388;13.390;2023-02-16T11:10:51;101684.19;;;9.42;93.08
36092;BME280;22147;52.388;13.390;2023-02-16T11:13:33;101690.63;;;9.61;86.50
36092;BME280;22147;52.388;13.390;2023-02-16T11:16:20;101683.50;;;9.31;86.98
36092;BME280;22147;52.388;13.390;2023-02-16T11:19:24;101683.13;;;9.19;85.76
36092;BME280;22147;52.388;13.390;2023-02-16T11:21:55;101675.16;;;8.88;87.55
36092;BME280;22147;52.388;13.390;2023-02-16T11:24:33;101682.84;;;8.91;92.22
36092;BME280;22147;52.388;13.390;2023-02-16T11:27:17;101685.78;;;8.75;90.17
36092;BME280;22147;52.388;13.390;2023-02-16T11:29:56;101686.31;;;8.53;90.78
36092;BME280;22147;52.388;13.390;2023-02-16T11:32:51;101683.63;;;8.38;91.35
36092;BME280;22147;52.388;13.390;2023-02-16T11:35:21;101684.88;;;8.56;92.91
36092;BME280;22147;52.388;13.390;2023-02-16T11:37:52;101677.50;;;8.75;90.90
36092;BME280;22147;52.388;13.390;2023-02-16T11:40:32;101670.31;;;8.74;90.40
36092;BME280;22147;52.388;13.390;2023-02-16T11:43:03;101664.41;;;9.05;89.69
36092;BME280;22147;52.388;13.390;2023-02-16T11:45:35;101660.44;;;9.16;87.62
36092;BME280;22147;52.388;13.390;2023-02-16T11:48:12;101664.66;;;9.09;85.85
36092;BME280;22147;52.388;13.390;2023-02-16T11:51:06;101657.41;;;8.89;87.91
36092;BME280;22147;52.388;13.390;2023-02-16T11:53:41;101662.66;;;8.90;86.37
36092;BME280;22147;52.388;13.390;2023-02-16T11:56:28;101662.22;;;8.78;86.42
36092;BME280;22147;52.388;13.390;2023-02-16T12:07:52;101646.66;;;8.82;85.47
36092;BME280;22147;52.388;13.390;2023-02-16T12:11:14;101643.53;;;8.65;89.40
36092;BME280;22147;52.388;13.390;2023-02-16T12:20:30;101636.38;;;8.88;85.39
36092;BME280;22147;52.388;13.390;2023-02-16T12:23:35;101629.34;;;8.71;84.62
36092;BME280;22147;52.388;13.390;2023-02-16T12:29:33;101640.09;;;9.02;85.49
36092;BME280;22147;52.388;13.390;2023-02-16T12:45:03;101607.25;;;9.33;83.52
36092;BME280;22147;52.388;13.390;2023-02-16T12:48:18;101615.94;;;9.46;81.67
36092;BME280;22147;52.388;13.390;2023-02-16T12:51:00;101615.28;;;9.73;82.76
36092;BME280;22147;52.388;13.390;2023-02-16T12:53:54;101611.28;;;9.79;83.00
36092;BME280;22147;52.388;13.390;2023-02-16T12:56:40;101620.56;;;9.88;80.55
36092;BME280;22147;52.388;13.390;2023-02-16T12:59:47;101616.84;;;9.79;81.66
36092;BME280;22147;52.388;13.390;2023-02-16T13:02:34;101618.84;;;9.92;79.43
36092;BME280;22147;52.388;13.390;2023-02-16T13:05:30;101613.63;;;9.72;80.10
36092;BME280;22147;52.388;13.390;2023-02-16T13:08:25;101610.63;;;9.87;80.63
36092;BME280;22147;52.388;13.390;2023-02-16T13:12:22;101608.59;;;9.93;80.97
36092;BME280;22147;52.388;13.390;2023-02-16T13:14:37;101596.06;;;9.95;81.49
36092;BME280;22147;52.388;13.390;2023-02-16T13:17:27;101595.09;;;10.19;78.06
36092;BME280;22147;52.388;13.390;2023-02-16T13:20:03;101599.63;;;10.15;79.44
36092;BME280;22147;52.388;13.390;2023-02-16T13:42:31;101576.28;;;10.63;77.38
36092;BME280;22147;52.388;13.390;2023-02-16T13:45:20;101577.00;;;10.68;75.55
36092;BME280;22147;52.388;13.390;2023-02-16T13:47:56;101575.97;;;10.78;75.93
36092;BME280;22147;52.388;13.390;2023-02-16T13:50:32;101581.00;;;10.90;76.95
36092;BME280;22147;52.388;13.390;2023-02-16T13:53:18;101582.41;;;11.15;75.92
36092;BME280;22147;52.388;13.390;2023-02-16T14:01:51;101584.41;;;11.51;75.37
36092;BME280;22147;52.388;13.390;2023-02-16T14:17:31;101566.00;;;10.63;79.77
36092;BME280;22147;52.388;13.390;2023-02-16T14:22:52;101585.94;;;10.51;80.24
36092;BME280;22147;52.388;13.390;2023-02-16T14:25:36;101586.25;;;10.50;80.42
36092;BME280;22147;52.388;13.390;2023-02-16T14:30:57;101576.59;;;10.61;80.74
36092;BME280;22147;52.388;13.390;2023-02-16T14:33:47;101569.28;;;10.51;81.41
36092;BME280;22147;52.388;13.390;2023-02-16T14:39:48;101563.38;;;10.39;81.64
36092;BME280;22147;52.388;13.390;2023-02-16T14:42:54;101568.84;;;10.44;80.79
36092;BME280;22147;52.388;13.390;2023-02-16T14:58:38;101563.00;;;9.99;81.58
36092;BME280;22147;52.388;13.390;2023-02-16T15:01:18;101565.09;;;9.88;82.90
36092;BME280;22147;52.388;13.390;2023-02-16T15:03:54;101572.97;;;9.81;84.25
36092;BME280;22147;52.388;13.390;2023-02-16T15:06:46;101566.78;;;9.70;85.67
36092;BME280;22147;52.388;13.390;2023-02-16T15:09:27;101571.88;;;9.63;86.53
36092;BME280;22147;52.388;13.390;2023-02-16T15:12:13;101562.19;;;9.61;88.30
36092;BME280;22147;52.388;13.390;2023-02-16T15:14:58;101567.06;;;9.69;88.21
36092;BME280;22147;52.388;13.390;2023-02-16T15:17:47;101568.88;;;9.78;85.57
36092;BME280;22147;52.388;13.390;2023-02-16T15:20:36;101565.34;;;9.73;85.21
36092;BME280;22147;52.388;13.390;2023-02-16T15:26:14;101560.09;;;9.52;87.10
36092;BME280;22147;52.388;13.390;2023-02-16T15:29:19;101560.34;;;9.56;85.45
36092;BME280;22147;52.388;13.390;2023-02-16T15:31:53;101556.84;;;9.50;85.12
36092;BME280;22147;52.388;13.390;2023-02-16T15:34:34;101550.38;;;9.36;86.78
36092;BME280;22147;52.388;13.390;2023-02-16T15:37:30;101546.47;;;9.18;89.68
36092;BME280;22147;52.388;13.390;2023-02-16T15:40:26;101556.22;;;9.15;87.95
36092;BME280;22147;52.388;13.390;2023-02-16T15:46:28;101553.59;;;9.05;89.22
36092;BME280;22147;52.388;13.390;2023-02-16T15:49:28;101549.44;;;8.84;91.14
36092;BME280;22147;52.388;13.390;2023-02-16T15:51:59;101549.56;;;8.73;93.18
36092;BME280;22147;52.388;13.390;2023-02-16T15:54:34;101543.91;;;8.60;93.55
36092;BME280;22147;52.388;13.390;2023-02-16T15:57:29;101542.97;;;8.40;97.23